Time;durP1;ratioP1;P1;durP2;ratioP2;P2;SDS_P1;SDS_P2;PMS_P1;PMS_P2;Temp;Humidity;BMP_temperature;BMP_pressure;BME280_temperature;BME280_humidity;BME280_pressure;Samples;Min_cycle;Max_cycle;Signal;HPM_P1;HPM_P2
2022/05/05 00:01:42;;;;;;;;;;;18.80;62.80;;;;;;5061598;28;1284;-72
2022/05/05 00:04:07;;;;;;;;;;;18.80;62.80;;;;;;5064825;28;1908;-74
2022/05/05 00:06:33;;;;;;;;;;;18.80;62.80;;;;;;5064734;28;1211;-71
2022/05/05 00:08:58;;;;;;;;;;;18.80;62.80;;;;;;5053091;28;1331;-71
2022/05/05 00:14:23;;;;;;;;;;;18.80;62.80;;;;;;5059412;28;1363;-71
2022/05/05 00:16:52;;;;;;;;;;;18.80;62.80;;;;;;5062949;28;1188;-70
2022/05/05 00:19:17;;;;;;;;;;;18.80;62.80;;;;;;5047239;28;1268;-73
2022/05/05 00:21:45;;;;;;;;;;;18.80;62.80;;;;;;5070524;28;1341;-72
2022/05/05 00:24:12;;;;;;;;;;;18.80;62.80;;;;;;5073301;28;1910;-72
2022/05/05 00:26:37;;;;;;;;;;;18.80;62.90;;;;;;5073387;28;827;-74
2022/05/05 00:29:03;;;;;;;;;;;18.80;62.80;;;;;;5072020;28;1029;-73
2022/05/05 00:31:28;;;;;;;;;;;18.80;62.80;;;;;;5073292;28;1289;-69
2022/05/05 00:33:53;;;;;;;;;;;18.80;62.90;;;;;;5072544;28;1029;-70
2022/05/05 00:36:19;;;;;;;;;;;18.80;62.80;;;;;;5072997;28;1134;-69
2022/05/05 00:38:44;;;;;;;;;;;18.70;62.80;;;;;;5060605;28;1184;-67
2022/05/05 00:41:12;;;;;;;;;;;18.70;62.80;;;;;;5060904;28;1381;-71
2022/05/05 00:43:38;;;;;;;;;;;18.80;62.90;;;;;;5062362;28;1906;-73
2022/05/05 00:46:03;;;;;;;;;;;18.80;62.90;;;;;;5062152;28;1298;-71
2022/05/05 00:48:29;;;;;;;;;;;18.80;62.90;;;;;;5061746;28;1215;-71
2022/05/05 00:50:54;;;;;;;;;;;18.80;62.90;;;;;;5063241;28;1265;-72
2022/05/05 00:53:20;;;;;;;;;;;18.80;62.90;;;;;;5060247;28;1394;-71
2022/05/05 00:55:45;;;;;;;;;;;18.70;62.80;;;;;;5060248;28;1231;-70
2022/05/05 00:58:11;;;;;;;;;;;18.80;62.90;;;;;;5052605;28;1081;-70
2022/05/05 01:00:37;;;;;;;;;;;18.70;62.80;;;;;;5051515;28;1386;-70
2022/05/05 01:03:02;;;;;;;;;;;18.70;62.80;;;;;;5051595;28;1120;-71
2022/05/05 01:05:27;;;;;;;;;;;18.80;62.90;;;;;;5052642;28;1957;-71
2022/05/05 01:07:55;;;;;;;;;;;18.80;62.90;;;;;;5052556;28;835;-71
2022/05/05 01:10:21;;;;;;;;;;;18.70;62.90;;;;;;5089722;28;1312;-71
2022/05/05 01:12:46;;;;;;;;;;;18.70;62.80;;;;;;5088820;28;1133;-71
2022/05/05 01:15:13;;;;;;;;;;;18.80;62.90;;;;;;5072774;28;934;-71
2022/05/05 01:17:38;;;;;;;;;;;18.70;62.90;;;;;;5071525;28;2330;-71
2022/05/05 01:20:11;;;;;;;;;;;18.70;62.90;;;;;;5077954;28;1449;-71
2022/05/05 01:22:36;;;;;;;;;;;18.70;62.90;;;;;;5083427;28;1540;-71
2022/05/05 01:30:30;;;;;;;;;;;18.70;62.90;;;;;;5088204;28;1500;-71
2022/05/05 01:32:55;;;;;;;;;;;18.70;62.90;;;;;;5092794;28;828;-72
2022/05/05 01:35:20;;;;;;;;;;;18.70;62.90;;;;;;5092925;28;806;-70
2022/05/05 01:37:47;;;;;;;;;;;18.70;62.90;;;;;;5081699;28;2121;-72
2022/05/05 01:40:12;;;;;;;;;;;18.70;62.90;;;;;;5082287;28;1284;-72
2022/05/05 01:42:38;;;;;;;;;;;18.70;62.90;;;;;;5082970;28;1086;-72
2022/05/05 01:45:04;;;;;;;;;;;18.70;62.90;;;;;;5095516;28;1966;-71
2022/05/05 01:47:29;;;;;;;;;;;18.70;62.90;;;;;;5096347;28;930;-71
2022/05/05 01:49:59;;;;;;;;;;;18.70;62.90;;;;;;5085790;28;1679;-71
2022/05/05 01:52:24;;;;;;;;;;;18.70;63.00;;;;;;5091083;28;1169;-71
2022/05/05 01:54:49;;;;;;;;;;;18.70;62.90;;;;;;5096413;28;958;-71
2022/05/05 01:57:15;;;;;;;;;;;18.70;62.90;;;;;;5096112;28;922;-71
2022/05/05 01:59:40;;;;;;;;;;;18.70;62.90;;;;;;5096230;28;843;-72
2022/05/05 02:02:06;;;;;;;;;;;18.70;63.00;;;;;;5095043;28;1269;-71
2022/05/05 02:04:31;;;;;;;;;;;18.70;62.90;;;;;;5094794;28;1885;-71
2022/05/05 02:06:57;;;;;;;;;;;18.70;62.90;;;;;;5094735;28;941;-71
2022/05/05 02:09:22;;;;;;;;;;;18.70;63.00;;;;;;5084995;28;1146;-72
2022/05/05 02:11:48;;;;;;;;;;;18.70;63.00;;;;;;5075671;28;1200;-71
2022/05/05 02:14:13;;;;;;;;;;;18.70;63.00;;;;;;5074211;28;1221;-71
2022/05/05 02:16:38;;;;;;;;;;;18.70;63.00;;;;;;5074540;28;1060;-71
2022/05/05 02:19:04;;;;;;;;;;;18.70;63.00;;;;;;5075533;28;882;-71
2022/05/05 02:21:29;;;;;;;;;;;18.70;63.00;;;;;;5075621;28;1216;-72
2022/05/05 02:23:55;;;;;;;;;;;18.70;63.00;;;;;;5075619;28;1910;-72
2022/05/05 02:26:21;;;;;;;;;;;18.70;63.00;;;;;;5075644;28;862;-72
2022/05/05 02:28:49;;;;;;;;;;;18.70;63.00;;;;;;5074343;28;681;-72
2022/05/05 02:31:15;;;;;;;;;;;18.70;63.00;;;;;;5075467;28;1206;-72
2022/05/05 02:33:40;;;;;;;;;;;18.70;63.00;;;;;;5075268;28;1001;-72
2022/05/05 02:38:49;;;;;;;;;;;18.70;63.00;;;;;;5055102;28;606;-73
2022/05/05 02:41:15;;;;;;;;;;;18.70;63.00;;;;;;5055202;28;1200;-72
2022/05/05 02:43:40;;;;;;;;;;;18.70;63.10;;;;;;5055303;28;961;-72
2022/05/05 02:46:06;;;;;;;;;;;18.70;63.00;;;;;;5054223;28;893;-72
2022/05/05 02:48:31;;;;;;;;;;;18.70;63.00;;;;;;5055130;28;954;-72
2022/05/05 02:50:57;;;;;;;;;;;18.70;63.00;;;;;;5055007;28;1196;-72
2022/05/05 02:56:06;;;;;;;;;;;18.70;63.00;;;;;;5054470;28;626;-71
2022/05/05 02:58:31;;;;;;;;;;;18.70;63.00;;;;;;5054845;28;1017;-71
2022/05/05 03:00:57;;;;;;;;;;;18.70;63.00;;;;;;5054847;28;1182;-70
2022/05/05 03:03:22;;;;;;;;;;;18.70;63.00;;;;;;5054700;28;910;-71
2022/05/05 03:05:48;;;;;;;;;;;18.70;63.00;;;;;;5053593;28;1949;-71
2022/05/05 03:08:13;;;;;;;;;;;18.70;63.00;;;;;;5056798;28;1194;-71
2022/05/05 03:10:38;;;;;;;;;;;18.70;63.10;;;;;;5094748;28;1306;-71
2022/05/05 03:13:04;;;;;;;;;;;18.70;63.00;;;;;;5087044;28;1161;-70
2022/05/05 03:15:29;;;;;;;;;;;18.70;63.00;;;;;;5073415;28;886;-70
2022/05/05 03:17:55;;;;;;;;;;;18.70;63.10;;;;;;5073299;28;847;-71
2022/05/05 03:20:20;;;;;;;;;;;18.70;63.10;;;;;;5065353;28;2332;-69
2022/05/05 03:22:46;;;;;;;;;;;18.70;63.80;;;;;;5074366;28;1189;-69
2022/05/05 03:25:11;;;;;;;;;;;18.70;63.10;;;;;;5073955;28;1957;-68
2022/05/05 03:27:37;;;;;;;;;;;18.70;63.10;;;;;;5074079;28;907;-67
2022/05/05 03:30:03;;;;;;;;;;;18.70;63.00;;;;;;5072842;28;1200;-68
2022/05/05 03:32:28;;;;;;;;;;;18.70;63.00;;;;;;5073092;28;1369;-69
2022/05/05 03:34:54;;;;;;;;;;;18.70;63.10;;;;;;5072922;28;1034;-68
2022/05/05 03:37:19;;;;;;;;;;;18.70;63.10;;;;;;5072556;28;1210;-67
2022/05/05 03:39:45;;;;;;;;;;;18.80;63.10;;;;;;5074401;28;1076;-68
2022/05/05 03:42:10;;;;;;;;;;;18.70;63.10;;;;;;5073074;28;1338;-67
2022/05/05 03:44:36;;;;;;;;;;;18.70;63.10;;;;;;5073967;28;1941;-68
2022/05/05 03:47:01;;;;;;;;;;;18.70;63.10;;;;;;5073976;28;854;-75
2022/05/05 03:49:27;;;;;;;;;;;18.70;63.10;;;;;;5073655;28;711;-74
2022/05/05 03:51:52;;;;;;;;;;;18.70;63.10;;;;;;5073762;28;1291;-72
2022/05/05 03:54:18;;;;;;;;;;;18.70;63.10;;;;;;5074123;28;805;-68
2022/05/05 03:56:44;;;;;;;;;;;18.70;63.10;;;;;;5063020;28;1765;-69
2022/05/05 03:59:09;;;;;;;;;;;18.70;63.10;;;;;;5070310;28;1177;-68
2022/05/05 04:01:35;;;;;;;;;;;18.70;63.10;;;;;;5067890;28;1334;-67
2022/05/05 04:04:00;;;;;;;;;;;18.70;63.10;;;;;;5053343;28;1964;-67
2022/05/05 04:06:25;;;;;;;;;;;18.70;63.10;;;;;;5052140;28;1026;-69
2022/05/05 04:08:51;;;;;;;;;;;18.70;63.10;;;;;;5065283;28;1115;-69
2022/05/05 04:11:16;;;;;;;;;;;18.70;63.10;;;;;;5091632;28;1200;-72
2022/05/05 04:13:42;;;;;;;;;;;18.70;63.10;;;;;;5080653;28;1188;-72
2022/05/05 04:16:07;;;;;;;;;;;18.70;63.10;;;;;;5073444;28;784;-72
2022/05/05 04:18:33;;;;;;;;;;;18.70;63.10;;;;;;5072131;28;946;-72
2022/05/05 04:20:59;;;;;;;;;;;18.70;63.10;;;;;;5072034;28;1215;-72
2022/05/05 04:23:24;;;;;;;;;;;18.70;63.20;;;;;;5073213;28;1072;-72
2022/05/05 04:25:50;;;;;;;;;;;18.70;63.10;;;;;;5073258;28;1918;-72
2022/05/05 04:28:15;;;;;;;;;;;18.70;63.10;;;;;;5071962;28;811;-73
2022/05/05 04:30:40;;;;;;;;;;;18.70;63.20;;;;;;5071902;28;1220;-70
2022/05/05 04:33:06;;;;;;;;;;;18.70;63.10;;;;;;5073161;28;949;-70
2022/05/05 04:35:32;;;;;;;;;;;18.70;63.20;;;;;;5073175;28;937;-70
2022/05/05 04:37:57;;;;;;;;;;;18.70;63.20;;;;;;5058780;28;1169;-70
2022/05/05 04:40:23;;;;;;;;;;;18.70;63.20;;;;;;5051794;28;1229;-70
2022/05/05 04:42:48;;;;;;;;;;;18.70;63.20;;;;;;5053153;28;719;-75
2022/05/05 04:45:14;;;;;;;;;;;18.70;63.20;;;;;;5051957;28;1950;-71
2022/05/05 04:47:39;;;;;;;;;;;18.70;63.20;;;;;;5035005;28;875;-71
2022/05/05 04:50:05;;;;;;;;;;;18.70;63.20;;;;;;5051532;28;1207;-71
2022/05/05 04:52:31;;;;;;;;;;;18.70;63.20;;;;;;5035107;28;1430;-70
2022/05/05 04:54:57;;;;;;;;;;;18.70;63.20;;;;;;5051649;28;808;-71
2022/05/05 04:57:22;;;;;;;;;;;18.70;63.20;;;;;;5052840;28;1045;-71
2022/05/05 04:59:48;;;;;;;;;;;18.70;63.20;;;;;;5052777;28;906;-71
2022/05/05 05:02:13;;;;;;;;;;;18.70;63.20;;;;;;5052815;28;941;-71
2022/05/05 05:04:38;;;;;;;;;;;18.70;63.20;;;;;;5051548;28;1949;-71
2022/05/05 05:07:04;;;;;;;;;;;18.70;63.20;;;;;;5052570;28;741;-71
2022/05/05 05:09:29;;;;;;;;;;;18.70;63.20;;;;;;5076418;28;1198;-71
2022/05/05 05:11:55;;;;;;;;;;;18.70;63.20;;;;;;5092783;28;1258;-70
2022/05/05 05:14:20;;;;;;;;;;;18.70;63.20;;;;;;5075899;28;1248;-69
2022/05/05 05:16:46;;;;;;;;;;;18.70;63.20;;;;;;5072878;28;702;-69
2022/05/05 05:19:11;;;;;;;;;;;18.70;63.20;;;;;;5074194;28;862;-69
2022/05/05 05:21:36;;;;;;;;;;;18.70;63.20;;;;;;5075233;28;1213;-69
2022/05/05 05:24:05;;;;;;;;;;;18.70;63.20;;;;;;5076574;28;1898;-71
2022/05/05 05:26:30;;;;;;;;;;;18.70;64.00;;;;;;5076679;28;828;-71
2022/05/05 05:28:55;;;;;;;;;;;18.70;63.20;;;;;;5075142;28;1005;-71
2022/05/05 05:31:22;;;;;;;;;;;18.70;63.30;;;;;;5076471;28;1601;-72
2022/05/05 05:33:47;;;;;;;;;;;18.70;63.30;;;;;;5075283;28;863;-71
2022/05/05 05:36:13;;;;;;;;;;;18.70;63.30;;;;;;5076578;28;851;-71
2022/05/05 05:38:38;;;;;;;;;;;18.70;63.30;;;;;;5056450;28;1182;-70
2022/05/05 05:41:04;;;;;;;;;;;18.70;63.30;;;;;;5056516;28;1196;-72
2022/05/05 05:43:29;;;;;;;;;;;18.70;63.30;;;;;;5056544;28;792;-72
2022/05/05 05:45:54;;;;;;;;;;;18.70;63.30;;;;;;5056681;28;1891;-70
2022/05/05 05:48:20;;;;;;;;;;;18.70;63.30;;;;;;5057803;28;819;-71
2022/05/05 05:50:45;;;;;;;;;;;18.70;63.30;;;;;;5056773;28;1216;-68
2022/05/05 05:53:11;;;;;;;;;;;18.70;63.40;;;;;;5057473;28;850;-69
2022/05/05 05:55:36;;;;;;;;;;;18.70;63.40;;;;;;5055968;28;941;-72
2022/05/05 05:58:02;;;;;;;;;;;18.70;63.40;;;;;;5054583;28;991;-72
2022/05/05 06:00:28;;;;;;;;;;;18.70;63.30;;;;;;5055765;28;1290;-72
2022/05/05 06:05:38;;;;;;;;;;;18.70;63.40;;;;;;5055117;28;1906;-70
2022/05/05 06:08:03;;;;;;;;;;;18.70;63.40;;;;;;5055729;28;788;-70
2022/05/05 06:10:29;;;;;;;;;;;18.70;63.40;;;;;;5055663;28;1193;-71
2022/05/05 06:12:54;;;;;;;;;;;18.70;63.40;;;;;;5056021;28;763;-71
2022/05/05 06:15:20;;;;;;;;;;;18.70;63.40;;;;;;5054577;28;831;-70
2022/05/05 06:17:45;;;;;;;;;;;18.70;63.40;;;;;;5054119;28;1026;-71
2022/05/05 06:20:11;;;;;;;;;;;18.70;63.40;;;;;;5055449;28;1204;-70
2022/05/05 06:22:37;;;;;;;;;;;18.70;63.40;;;;;;5055514;28;891;-70
2022/05/05 06:25:03;;;;;;;;;;;18.70;63.40;;;;;;5055515;28;1956;-70
2022/05/05 06:27:28;;;;;;;;;;;18.70;63.40;;;;;;5053940;28;858;-70
2022/05/05 06:29:54;;;;;;;;;;;18.70;63.40;;;;;;5054694;28;1191;-70
2022/05/05 06:32:19;;;;;;;;;;;18.70;63.40;;;;;;5054901;28;854;-72
2022/05/05 06:34:45;;;;;;;;;;;18.70;63.40;;;;;;5055250;28;1041;-71
2022/05/05 06:37:12;;;;;;;;;;;18.70;63.40;;;;;;5062536;28;1174;-72
2022/05/05 06:39:37;;;;;;;;;;;18.70;63.40;;;;;;5074043;28;1179;-72
2022/05/05 06:42:03;;;;;;;;;;;18.70;63.40;;;;;;5075172;28;1177;-72
2022/05/05 06:44:28;;;;;;;;;;;18.70;63.40;;;;;;5074802;28;1957;-72
2022/05/05 06:46:55;;;;;;;;;;;18.70;63.40;;;;;;5074831;28;795;-72
2022/05/05 06:49:20;;;;;;;;;;;18.70;63.40;;;;;;5074948;28;823;-71
2022/05/05 06:51:45;;;;;;;;;;;18.70;63.50;;;;;;5075178;28;1194;-70
2022/05/05 06:54:11;;;;;;;;;;;18.70;63.40;;;;;;5075039;28;1029;-70
2022/05/05 06:56:36;;;;;;;;;;;18.70;63.40;;;;;;5074963;28;847;-70
2022/05/05 06:59:02;;;;;;;;;;;18.70;63.40;;;;;;5074701;28;819;-70
2022/05/05 07:06:56;;;;;;;;;;;18.70;63.40;;;;;;5074965;28;831;-70
2022/05/05 07:12:05;;;;;;;;;;;18.70;63.50;;;;;;5068291;22;1942;-68
2022/05/05 07:14:31;;;;;;;;;;;18.70;63.50;;;;;;5032277;28;1111;-69
2022/05/05 07:16:57;;;;;;;;;;;18.70;63.50;;;;;;5033470;28;791;-68
2022/05/05 07:19:22;;;;;;;;;;;18.70;63.50;;;;;;5034448;28;1057;-68
2022/05/05 07:21:48;;;;;;;;;;;18.70;63.50;;;;;;5034624;28;1225;-68
2022/05/05 07:24:13;;;;;;;;;;;18.70;63.50;;;;;;5016797;28;1944;-69
2022/05/05 07:26:38;;;;;;;;;;;18.70;63.50;;;;;;5033057;28;916;-68
2022/05/05 07:29:04;;;;;;;;;;;18.70;63.50;;;;;;5030046;28;2266;-68
2022/05/05 07:31:29;;;;;;;;;;;18.70;63.50;;;;;;5029745;28;1746;-67
2022/05/05 07:33:55;;;;;;;;;;;18.70;63.50;;;;;;5032148;28;1946;-67
2022/05/05 07:36:20;;;;;;;;;;;18.70;63.50;;;;;;5034241;28;1084;-67
2022/05/05 07:38:46;;;;;;;;;;;18.70;63.50;;;;;;5034032;28;1147;-67
2022/05/05 07:41:11;;;;;;;;;;;18.70;63.50;;;;;;5034040;28;1181;-67
2022/05/05 07:43:37;;;;;;;;;;;18.70;63.50;;;;;;5033982;28;1111;-68
2022/05/05 07:46:03;;;;;;;;;;;18.70;63.50;;;;;;5033146;28;2129;-67
2022/05/05 07:48:29;;;;;;;;;;;18.70;63.50;;;;;;5033862;28;1032;-67
2022/05/05 07:50:54;;;;;;;;;;;18.70;63.50;;;;;;5034051;28;1216;-67
2022/05/05 07:53:20;;;;;;;;;;;18.70;63.50;;;;;;5033806;28;1118;-67
2022/05/05 07:55:45;;;;;;;;;;;18.70;63.50;;;;;;5033702;28;1135;-67
2022/05/05 07:58:11;;;;;;;;;;;18.70;63.50;;;;;;5033676;28;827;-68
2022/05/05 08:00:36;;;;;;;;;;;18.70;63.50;;;;;;5033811;28;1318;-68
2022/05/05 08:03:02;;;;;;;;;;;18.70;63.50;;;;;;5034206;28;819;-68
2022/05/05 08:05:27;;;;;;;;;;;18.70;63.50;;;;;;5031453;28;1890;-67
2022/05/05 08:07:53;;;;;;;;;;;18.70;63.60;;;;;;5032414;28;890;-67
2022/05/05 08:10:18;;;;;;;;;;;18.70;63.50;;;;;;5051551;28;1275;-67
2022/05/05 08:12:45;;;;;;;;;;;18.70;63.50;;;;;;5048563;28;1302;-67
2022/05/05 08:15:10;;;;;;;;;;;18.70;63.50;;;;;;5031315;28;811;-67
2022/05/05 08:17:36;;;;;;;;;;;18.70;63.50;;;;;;5033266;28;974;-67
2022/05/05 08:20:02;;;;;;;;;;;18.70;63.50;;;;;;5033343;28;1072;-67
2022/05/05 08:22:28;;;;;;;;;;;18.70;63.60;;;;;;5033430;28;1290;-67
2022/05/05 08:30:21;;;;;;;;;;;18.70;63.60;;;;;;5032007;28;1300;-66
2022/05/05 08:32:47;;;;;;;;;;;18.70;63.60;;;;;;5033557;28;934;-66
2022/05/05 08:35:12;;;;;;;;;;;18.70;63.60;;;;;;5030715;28;1053;-65
2022/05/05 08:37:38;;;;;;;;;;;18.70;63.40;;;;;;5021719;28;1044;-66
2022/05/05 08:40:04;;;;;;;;;;;18.70;63.20;;;;;;5013697;28;772;-65
2022/05/05 08:42:30;;;;;;;;;;;18.70;62.50;;;;;;5012067;28;1329;-65
2022/05/05 08:44:55;;;;;;;;;;;18.70;62.50;;;;;;5013085;28;1907;-65
2022/05/05 08:47:21;;;;;;;;;;;18.80;63.10;;;;;;5011838;28;1379;-66
2022/05/05 08:49:47;;;;;;;;;;;18.80;62.90;;;;;;5011963;28;1010;-66
2022/05/05 08:52:13;;;;;;;;;;;18.80;63.90;;;;;;5013276;28;1204;-66
2022/05/05 08:54:39;;;;;;;;;;;18.80;63.50;;;;;;5011386;28;796;-66
2022/05/05 08:57:05;;;;;;;;;;;18.80;63.00;;;;;;5013215;28;842;-65
2022/05/05 08:59:31;;;;;;;;;;;18.80;62.80;;;;;;5011849;28;1053;-66
2022/05/05 09:01:56;;;;;;;;;;;18.80;62.90;;;;;;5013098;28;1175;-66
2022/05/05 09:04:21;;;;;;;;;;;18.80;63.10;;;;;;5012754;28;1903;-65
2022/05/05 09:06:47;;;;;;;;;;;18.80;63.00;;;;;;5013255;28;860;-66
2022/05/05 09:09:32;;;;;;;;;;;18.90;62.50;;;;;;5030579;28;1143;-66
2022/05/05 09:12:13;;;;;;;;;;;18.90;62.70;;;;;;5052431;28;1290;-66
2022/05/05 09:14:45;;;;;;;;;;;18.90;63.40;;;;;;5033257;28;1356;-66
2022/05/05 09:17:15;;;;;;;;;;;18.90;63.90;;;;;;5031271;28;801;-66
2022/05/05 09:19:41;;;;;;;;;;;18.90;63.60;;;;;;5032758;28;807;-66
2022/05/05 09:22:07;;;;;;;;;;;18.90;63.40;;;;;;5032586;28;1271;-66
2022/05/05 09:24:35;;;;;;;;;;;18.90;63.40;;;;;;5032729;28;1946;-66
2022/05/05 09:27:27;;;;;;;;;;;18.90;64.00;;;;;;5032709;28;907;-65
2022/05/05 09:30:01;;;;;;;;;;;18.90;64.90;;;;;;5031457;28;1943;-65
2022/05/05 09:32:31;;;;;;;;;;;18.80;64.60;;;;;;5032518;28;1275;-66
2022/05/05 09:35:03;;;;;;;;;;;18.90;65.20;;;;;;5031386;28;1056;-65
2022/05/05 10:21:36;;;;;;;;;;;19.30;68.30;;;;;;6238496;22;1210315;-69
2022/05/05 10:24:06;;;;;;;;;;;19.30;65.90;;;;;;6281002;22;815;-68
2022/05/05 10:26:31;;;;;;;;;;;19.30;63.80;;;;;;6284166;22;1948;-69
2022/05/05 10:28:57;;;;;;;;;;;19.30;66.30;;;;;;6257816;22;842;-68
2022/05/05 10:31:31;;;;;;;;;;;19.30;66.90;;;;;;6305670;22;1296;-68
2022/05/05 10:33:56;;;;;;;;;;;19.30;66.20;;;;;;6316068;22;1013;-67
2022/05/05 10:36:23;;;;;;;;;;;19.30;66.10;;;;;;6313650;22;906;-67
2022/05/05 10:38:49;;;;;;;;;;;19.20;66.40;;;;;;6314553;22;988;-67
2022/05/05 10:41:30;;;;;;;;;;;19.30;66.40;;;;;;6286777;22;1390;-67
2022/05/05 10:44:14;;;;;;;;;;;19.20;66.50;;;;;;6315431;22;814;-67
2022/05/05 10:47:14;;;;;;;;;;;19.20;65.30;;;;;;6313426;22;1888;-68
2022/05/05 10:49:39;;;;;;;;;;;19.20;65.40;;;;;;6232202;22;1287;-68
2022/05/05 10:52:07;;;;;;;;;;;19.20;66.10;;;;;;6315280;22;1208;-68
2022/05/05 10:54:33;;;;;;;;;;;19.20;66.10;;;;;;6315929;22;1017;-67
2022/05/05 10:57:18;;;;;;;;;;;19.20;65.60;;;;;;6286637;22;954;-67
2022/05/05 11:00:02;;;;;;;;;;;19.20;65.30;;;;;;6307894;22;1296;-68
2022/05/05 11:02:28;;;;;;;;;;;19.20;64.40;;;;;;6308576;22;689;-68
2022/05/05 11:05:04;;;;;;;;;;;19.20;63.50;;;;;;6281101;22;832;-67
2022/05/05 11:07:34;;;;;;;;;;;19.20;64.70;;;;;;6280882;22;1893;-67
2022/05/05 11:10:00;;;;;;;;;;;19.20;63.30;;;;;;6308156;22;1242;-67
2022/05/05 11:12:29;;;;;;;;;;;19.20;62.80;;;;;;6308230;22;1017;-67
2022/05/05 11:23:24;;;;;;;;;;;19.30;63.10;;;;;;6308151;22;942;-68
2022/05/05 11:25:50;;;;;;;;;;;19.30;63.10;;;;;;6307603;22;1948;-68
2022/05/05 11:28:16;;;;;;;;;;;19.30;61.30;;;;;;6307071;22;771;-70
2022/05/05 11:30:43;;;;;;;;;;;19.30;59.80;;;;;;6280457;22;1301;-68
2022/05/05 11:33:09;;;;;;;;;;;19.30;59.60;;;;;;6281329;22;828;-67
2022/05/05 11:35:34;;;;;;;;;;;19.40;58.90;;;;;;6307961;22;878;-68
2022/05/05 11:37:59;;;;;;;;;;;19.40;60.00;;;;;;6280920;22;950;-67
2022/05/05 11:40:25;;;;;;;;;;;19.40;58.70;;;;;;6280514;22;1300;-68
2022/05/05 11:45:35;;;;;;;;;;;19.40;58.10;;;;;;6307981;22;1940;-67
2022/05/05 11:48:16;;;;;;;;;;;19.40;58.90;;;;;;6279467;22;795;-68
2022/05/05 11:50:43;;;;;;;;;;;19.40;58.00;;;;;;6279760;22;1196;-71
2022/05/05 11:53:17;;;;;;;;;;;19.40;58.10;;;;;;6307458;22;851;-68
2022/05/05 11:55:45;;;;;;;;;;;19.40;58.00;;;;;;6280930;22;1011;-67
2022/05/05 11:58:15;;;;;;;;;;;19.50;57.50;;;;;;6280533;22;839;-67
2022/05/05 12:03:25;;;;;;;;;;;19.50;57.30;;;;;;6307495;22;590;-68
2022/05/05 12:05:53;;;;;;;;;;;19.60;58.30;;;;;;6280515;22;1930;-66
2022/05/05 12:08:19;;;;;;;;;;;19.60;58.20;;;;;;6280913;22;850;-67
2022/05/05 12:10:44;;;;;;;;;;;19.70;57.20;;;;;;6279889;22;1325;-68
2022/05/05 12:13:10;;;;;;;;;;;19.70;57.20;;;;;;6307690;22;773;-68
2022/05/05 12:15:36;;;;;;;;;;;19.70;57.40;;;;;;6280880;22;791;-68
2022/05/05 12:18:01;;;;;;;;;;;19.80;57.00;;;;;;6280056;22;1188;-67
2022/05/05 12:20:27;;;;;;;;;;;19.80;56.90;;;;;;6307347;22;1300;-68
2022/05/05 12:22:57;;;;;;;;;;;19.80;56.60;;;;;;6307534;22;954;-68
2022/05/05 12:25:23;;;;;;;;;;;19.90;56.70;;;;;;6307596;22;1896;-68
2022/05/05 12:28:01;;;;;;;;;;;19.90;57.80;;;;;;6307761;22;839;-68
2022/05/05 12:30:33;;;;;;;;;;;19.90;56.50;;;;;;6307714;22;1304;-67
2022/05/05 12:32:58;;;;;;;;;;;19.90;56.80;;;;;;6307804;22;847;-68
2022/05/05 12:35:30;;;;;;;;;;;19.90;57.10;;;;;;6307512;22;997;-68
2022/05/05 12:37:57;;;;;;;;;;;19.90;57.30;;;;;;6307558;22;930;-68
2022/05/05 12:40:22;;;;;;;;;;;19.80;58.30;;;;;;6279978;22;1202;-68
2022/05/05 12:42:48;;;;;;;;;;;19.80;58.40;;;;;;6307599;22;695;-68
2022/05/05 12:45:15;;;;;;;;;;;19.80;59.00;;;;;;6280632;22;1892;-68
2022/05/05 12:47:41;;;;;;;;;;;19.80;57.70;;;;;;6307387;22;783;-68
2022/05/05 12:50:24;;;;;;;;;;;19.80;58.20;;;;;;6307007;22;1599;-68
2022/05/05 13:01:02;;;;;;;;;;;19.80;57.40;;;;;;6306838;22;1233;-68
2022/05/05 13:03:29;;;;;;;;;;;19.80;56.70;;;;;;6307113;22;942;-68
2022/05/05 13:05:54;;;;;;;;;;;19.80;56.10;;;;;;6279891;22;1934;-68
2022/05/05 13:08:19;;;;;;;;;;;19.70;57.20;;;;;;6307174;22;958;-68
2022/05/05 13:10:45;;;;;;;;;;;19.70;55.40;;;;;;6306362;22;1293;-67
2022/05/05 13:13:11;;;;;;;;;;;19.80;55.90;;;;;;6306920;22;815;-68
2022/05/05 13:15:36;;;;;;;;;;;19.70;55.40;;;;;;6307153;22;942;-69
2022/05/05 13:18:03;;;;;;;;;;;19.70;55.00;;;;;;6306466;22;843;-68
2022/05/05 13:20:29;;;;;;;;;;;19.70;57.40;;;;;;6306437;22;1210;-68
2022/05/05 13:22:54;;;;;;;;;;;19.70;56.50;;;;;;6307372;22;1037;-68
2022/05/05 13:25:20;;;;;;;;;;;19.70;55.70;;;;;;6306660;22;1892;-68
2022/05/05 13:27:45;;;;;;;;;;;19.70;56.90;;;;;;6306854;22;780;-68
2022/05/05 13:30:11;;;;;;;;;;;19.70;56.50;;;;;;6306070;22;1301;-68
2022/05/05 13:32:36;;;;;;;;;;;19.70;56.30;;;;;;6306882;22;788;-68
2022/05/05 13:35:02;;;;;;;;;;;19.70;56.30;;;;;;6306678;22;744;-68
2022/05/05 13:37:27;;;;;;;;;;;19.70;55.40;;;;;;6306745;22;915;-68
2022/05/05 13:39:52;;;;;;;;;;;19.70;56.10;;;;;;6307035;22;1202;-68
2022/05/05 13:42:18;;;;;;;;;;;19.70;57.10;;;;;;6306653;22;776;-68
2022/05/05 13:44:44;;;;;;;;;;;19.60;56.00;;;;;;6306542;22;911;-68
2022/05/05 13:47:12;;;;;;;;;;;19.60;55.70;;;;;;6306532;22;1927;-68
2022/05/05 13:49:37;;;;;;;;;;;19.60;56.70;;;;;;6306758;22;807;-68
2022/05/05 13:52:03;;;;;;;;;;;19.60;55.70;;;;;;6306643;22;1207;-68
2022/05/05 13:54:28;;;;;;;;;;;19.60;56.50;;;;;;6307155;22;858;-67
2022/05/05 13:56:53;;;;;;;;;;;19.60;55.50;;;;;;6306654;22;804;-68
2022/05/05 13:59:20;;;;;;;;;;;19.60;54.90;;;;;;6306449;22;863;-68
2022/05/05 14:01:46;;;;;;;;;;;19.50;55.80;;;;;;6306266;22;1281;-68
2022/05/05 14:04:11;;;;;;;;;;;19.50;56.10;;;;;;6306794;22;776;-68
2022/05/05 14:06:37;;;;;;;;;;;19.50;55.80;;;;;;6306395;22;1888;-68
2022/05/05 14:14:30;;;;;;;;;;;19.50;54.80;;;;;;6306846;22;597;-68
2022/05/05 14:16:56;;;;;;;;;;;19.40;55.80;;;;;;6306550;22;1052;-68
2022/05/05 14:19:21;;;;;;;;;;;19.40;56.10;;;;;;6306467;22;886;-68
2022/05/05 14:21:47;;;;;;;;;;;19.40;56.40;;;;;;6306328;22;1186;-68
2022/05/05 14:24:12;;;;;;;;;;;19.40;57.00;;;;;;6306324;22;823;-68
2022/05/05 14:26:39;;;;;;;;;;;19.40;56.70;;;;;;6306628;22;1900;-67
2022/05/05 14:29:04;;;;;;;;;;;19.40;56.90;;;;;;6306307;22;820;-68
2022/05/05 14:31:30;;;;;;;;;;;19.40;57.00;;;;;;6305831;22;1670;-68
2022/05/05 14:33:55;;;;;;;;;;;19.40;57.30;;;;;;6308435;22;841;-68
2022/05/05 14:36:21;;;;;;;;;;;19.40;56.80;;;;;;6306824;22;887;-68
2022/05/05 14:38:46;;;;;;;;;;;19.40;57.00;;;;;;6279588;22;1025;-68
2022/05/05 14:41:12;;;;;;;;;;;19.40;57.40;;;;;;6307879;22;1277;-68
2022/05/05 14:43:37;;;;;;;;;;;19.30;57.60;;;;;;6308490;22;1155;-68
2022/05/05 14:46:02;;;;;;;;;;;19.30;57.60;;;;;;6308321;22;1896;-68
2022/05/05 14:48:29;;;;;;;;;;;19.30;57.00;;;;;;6308398;22;1045;-68
2022/05/05 14:50:54;;;;;;;;;;;19.30;56.40;;;;;;6307892;22;1209;-68
2022/05/05 14:53:21;;;;;;;;;;;19.30;56.70;;;;;;6308331;22;768;-68
2022/05/05 14:55:47;;;;;;;;;;;19.30;55.80;;;;;;6281790;22;857;-68
2022/05/05 14:58:12;;;;;;;;;;;19.30;54.50;;;;;;6281073;22;858;-68
2022/05/05 15:00:39;;;;;;;;;;;19.30;54.70;;;;;;6308343;22;1285;-68
2022/05/05 15:03:05;;;;;;;;;;;19.40;57.20;;;;;;6281689;22;962;-68
2022/05/05 15:05:30;;;;;;;;;;;19.40;57.70;;;;;;6308665;22;1887;-67
2022/05/05 15:20:17;;;;;;;;;;;19.40;59.90;;;;;;5124556;27;1433;-68
2022/05/05 15:22:42;;;;;;;;;;;19.70;60.80;;;;;;5083888;28;1415;-68
2022/05/05 15:25:11;;;;;;;;;;;19.60;61.10;;;;;;5070365;28;1083;-68
2022/05/05 15:27:37;;;;;;;;;;;19.70;61.30;;;;;;5069925;28;1946;-69
2022/05/05 15:30:03;;;;;;;;;;;19.60;61.10;;;;;;5069785;28;1252;-66
2022/05/05 15:32:31;;;;;;;;;;;19.60;61.20;;;;;;5069988;28;781;-68
2022/05/05 15:34:57;;;;;;;;;;;19.60;61.30;;;;;;5069846;28;930;-69
2022/05/05 15:37:23;;;;;;;;;;;19.60;61.50;;;;;;5068646;28;856;-68
2022/05/05 15:39:48;;;;;;;;;;;19.50;61.80;;;;;;5069356;28;1227;-67
2022/05/05 15:42:14;;;;;;;;;;;19.50;61.80;;;;;;5085277;28;782;-69
2022/05/05 15:44:39;;;;;;;;;;;19.50;62.00;;;;;;5081947;28;1951;-68
2022/05/05 15:47:05;;;;;;;;;;;19.40;62.20;;;;;;5089804;28;1821;-69
2022/05/05 15:49:30;;;;;;;;;;;19.40;62.30;;;;;;5091200;28;1898;-68
2022/05/05 15:51:56;;;;;;;;;;;19.40;62.40;;;;;;5101037;28;1731;-68
2022/05/05 15:54:21;;;;;;;;;;;19.40;62.40;;;;;;5109090;28;738;-68
2022/05/05 15:56:46;;;;;;;;;;;19.30;62.40;;;;;;5110061;28;719;-68
2022/05/05 15:59:12;;;;;;;;;;;19.30;62.40;;;;;;5109734;28;1223;-68
2022/05/05 16:01:37;;;;;;;;;;;19.30;62.70;;;;;;5109803;28;706;-70
2022/05/05 16:04:03;;;;;;;;;;;19.30;62.70;;;;;;5108879;28;804;-68
2022/05/05 16:06:28;;;;;;;;;;;19.30;62.70;;;;;;5110191;28;930;-68
2022/05/05 16:08:53;;;;;;;;;;;19.30;62.80;;;;;;5095563;28;1898;-69
2022/05/05 16:11:19;;;;;;;;;;;19.20;62.80;;;;;;5088762;28;1258;-70
2022/05/05 16:13:44;;;;;;;;;;;19.20;62.90;;;;;;5089187;28;899;-69
2022/05/05 16:16:10;;;;;;;;;;;19.20;62.90;;;;;;5094875;28;2384;-69
2022/05/05 16:18:35;;;;;;;;;;;19.20;62.90;;;;;;5099923;28;1612;-69
2022/05/05 16:21:01;;;;;;;;;;;19.20;63.20;;;;;;5108517;28;1317;-69
2022/05/05 16:23:26;;;;;;;;;;;19.20;63.20;;;;;;5116019;28;812;-69
2022/05/05 16:31:20;;;;;;;;;;;19.20;63.30;;;;;;5074990;28;1377;-69